sensor_id;sensor_type;location;lat;lon;timestamp;pressure;altitude;pressure_sealevel;temperature;humidity
59654;BME280;66556;52.008;5.432;2023-07-29T00:02:20;100665.0;;;43.32;18.59
59654;BME280;66556;52.008;5.432;2023-07-29T00:03:56;100655.0;;;43.53;18.41
59654;BME280;66556;52.008;5.432;2023-07-29T00:05:32;100650.0;;;44.4;17.7
59654;BME280;66556;52.008;5.432;2023-07-29T00:08:44;100651.0;;;44.28;17.72
59654;BME280;66556;52.008;5.432;2023-07-29T00:10:21;100648.0;;;43.08;18.72
59654;BME280;66556;52.008;5.432;2023-07-29T00:11:57;100641.0;;;43.61;18.12
59654;BME280;66556;52.008;5.432;2023-07-29T00:13:33;100634.0;;;43.55;18.29
59654;BME280;66556;52.008;5.432;2023-07-29T00:16:48;100630.0;;;43.32;18.45
59654;BME280;66556;52.008;5.432;2023-07-29T00:18:24;100628.0;;;43.06;18.91
59654;BME280;66556;52.008;5.432;2023-07-29T00:20:00;100627.0;;;43.56;18.29
59654;BME280;66556;52.008;5.432;2023-07-29T00:23:12;100622.0;;;43.27;18.68
59654;BME280;66556;52.008;5.432;2023-07-29T00:24:51;100616.0;;;42.8;19.25
59654;BME280;66556;52.008;5.432;2023-07-29T00:26:28;100610.0;;;43.21;18.88
59654;BME280;66556;52.008;5.432;2023-07-29T00:29:40;100606.0;;;43.68;18.41
59654;BME280;66556;52.008;5.432;2023-07-29T00:31:16;100607.0;;;43.22;18.73
59654;BME280;66556;52.008;5.432;2023-07-29T00:32:52;100624.0;;;43.14;18.77
59654;BME280;66556;52.008;5.432;2023-07-29T00:34:28;100630.0;;;43.78;18.2
59654;BME280;66556;52.008;5.432;2023-07-29T00:37:40;100631.0;;;44.42;17.7
59654;BME280;66556;52.008;5.432;2023-07-29T00:39:17;100630.0;;;44.38;17.66
59654;BME280;66556;52.008;5.432;2023-07-29T00:40:53;100630.0;;;43.68;18.27
59654;BME280;66556;52.008;5.432;2023-07-29T00:44:05;100636.0;;;44.43;17.45
59654;BME280;66556;52.008;5.432;2023-07-29T00:45:43;100635.0;;;44.02;17.96
59654;BME280;66556;52.008;5.432;2023-07-29T00:47:21;100639.0;;;43.34;18.64
59654;BME280;66556;52.008;5.432;2023-07-29T00:50:34;100632.0;;;43.98;18.11
59654;BME280;66556;52.008;5.432;2023-07-29T00:52:10;100634.0;;;44.83;17.29
59654;BME280;66556;52.008;5.432;2023-07-29T00:53:46;100635.0;;;44.05;17.91
59654;BME280;66556;52.008;5.432;2023-07-29T00:56:58;100632.0;;;43.79;18.25
59654;BME280;66556;52.008;5.432;2023-07-29T00:58:34;100616.0;;;44.6;17.7
59654;BME280;66556;52.008;5.432;2023-07-29T01:00:11;100610.0;;;45.04;17.07
59654;BME280;66556;52.008;5.432;2023-07-29T01:01:48;100605.0;;;45.29;16.93
59654;BME280;66556;52.008;5.432;2023-07-29T01:05:00;100603.0;;;45.02;17.34
59654;BME280;66556;52.008;5.432;2023-07-29T01:06:43;100599.0;;;45.69;16.64
59654;BME280;66556;52.008;5.432;2023-07-29T01:08:31;100609.0;;;43.65;18.25
59654;BME280;66556;52.008;5.432;2023-07-29T01:10:15;100605.0;;;43.14;18.68
59654;BME280;66556;52.008;5.432;2023-07-29T01:13:49;100606.0;;;42.95;18.7
59654;BME280;66556;52.008;5.432;2023-07-29T01:15:32;100615.0;;;44.13;17.64
59654;BME280;66556;52.008;5.432;2023-07-29T01:17:14;100623.0;;;44.14;17.57
59654;BME280;66556;52.008;5.432;2023-07-29T01:19:06;100632.0;;;44.34;17.3
59654;BME280;66556;52.008;5.432;2023-07-29T01:20:46;100621.0;;;44.15;17.73
59654;BME280;66556;52.008;5.432;2023-07-29T01:24:00;100620.0;;;43.48;18.38
59654;BME280;66556;52.008;5.432;2023-07-29T01:25:36;100617.0;;;43.16;18.82
59654;BME280;66556;52.008;5.432;2023-07-29T01:27:12;100611.0;;;44.63;17.5
59654;BME280;66556;52.008;5.432;2023-07-29T01:30:30;100614.0;;;43.49;18.41
59654;BME280;66556;52.008;5.432;2023-07-29T01:32:19;100620.0;;;43.1;18.96
59654;BME280;66556;52.008;5.432;2023-07-29T01:33:58;100617.0;;;43.42;18.68
59654;BME280;66556;52.008;5.432;2023-07-29T01:35:42;100616.0;;;42.78;19.32
59654;BME280;66556;52.008;5.432;2023-07-29T01:37:25;100614.0;;;42.86;19.31
59654;BME280;66556;52.008;5.432;2023-07-29T01:40:39;100611.0;;;43.15;19.14
59654;BME280;66556;52.008;5.432;2023-07-29T01:42:17;100608.0;;;43.13;19.04
59654;BME280;66556;52.008;5.432;2023-07-29T01:43:53;100616.0;;;43.26;19.04
59654;BME280;66556;52.008;5.432;2023-07-29T01:47:06;100612.0;;;43.22;19.27
59654;BME280;66556;52.008;5.432;2023-07-29T01:48:42;100610.0;;;43.78;18.8
59654;BME280;66556;52.008;5.432;2023-07-29T01:50:18;100607.0;;;44.78;17.88
59654;BME280;66556;52.008;5.432;2023-07-29T01:51:54;100602.0;;;43.81;18.78
59654;BME280;66556;52.008;5.432;2023-07-29T01:55:07;100601.0;;;44.73;18.13
59654;BME280;66556;52.008;5.432;2023-07-29T01:56:44;100601.0;;;44.16;18.55
59654;BME280;66556;52.008;5.432;2023-07-29T01:58:20;100594.0;;;44.22;18.61
59654;BME280;66556;52.008;5.432;2023-07-29T02:01:32;100595.0;;;44.21;18.93
59654;BME280;66556;52.008;5.432;2023-07-29T02:03:08;100594.0;;;44.19;18.89
59654;BME280;66556;52.008;5.432;2023-07-29T02:04:44;100590.0;;;44.77;18.34
59654;BME280;66556;52.008;5.432;2023-07-29T02:07:57;100594.0;;;44.79;18.34
59654;BME280;66556;52.008;5.432;2023-07-29T02:09:33;100596.0;;;44.47;18.62
59654;BME280;66556;52.008;5.432;2023-07-29T02:11:09;100593.0;;;44.25;18.75
59654;BME280;66556;52.008;5.432;2023-07-29T02:14:21;100595.0;;;44.96;18.18
59654;BME280;66556;52.008;5.432;2023-07-29T02:15:57;100593.0;;;44.66;18.45
59654;BME280;66556;52.008;5.432;2023-07-29T02:17:33;100590.0;;;44.33;18.75
59654;BME280;66556;52.008;5.432;2023-07-29T02:19:09;100594.0;;;45.96;17.34
59654;BME280;66556;52.008;5.432;2023-07-29T02:22:22;100589.0;;;45.49;17.64
59654;BME280;66556;52.008;5.432;2023-07-29T02:23:58;100592.0;;;44.82;18.04
59654;BME280;66556;52.008;5.432;2023-07-29T02:25:35;100591.0;;;44.43;18.43
59654;BME280;66556;52.008;5.432;2023-07-29T02:28:47;100593.0;;;44.62;18.37
59654;BME280;66556;52.008;5.432;2023-07-29T02:30:23;100591.0;;;44.54;18.5
59654;BME280;66556;52.008;5.432;2023-07-29T02:31:59;100595.0;;;44.15;18.61
59654;BME280;66556;52.008;5.432;2023-07-29T02:35:12;100592.0;;;44.83;18.16
59654;BME280;66556;52.008;5.432;2023-07-29T02:36:48;100586.0;;;45.1;17.77
59654;BME280;66556;52.008;5.432;2023-07-29T02:38:24;100577.0;;;44.41;18.36
59654;BME280;66556;52.008;5.432;2023-07-29T02:40:00;100583.0;;;44.14;18.68
59654;BME280;66556;52.008;5.432;2023-07-29T02:43:12;100578.0;;;44.18;18.52
59654;BME280;66556;52.008;5.432;2023-07-29T02:44:48;100577.0;;;44.61;18.14
59654;BME280;66556;52.008;5.432;2023-07-29T02:46:24;100576.0;;;44.42;18.3
59654;BME280;66556;52.008;5.432;2023-07-29T02:49:37;100575.0;;;45.07;17.61
59654;BME280;66556;52.008;5.432;2023-07-29T02:51:13;100574.0;;;44.72;17.81
59654;BME280;66556;52.008;5.432;2023-07-29T02:52:49;100569.0;;;44.16;18.28
59654;BME280;66556;52.008;5.432;2023-07-29T02:56:01;100566.0;;;45.03;17.45
59654;BME280;66556;52.008;5.432;2023-07-29T02:57:37;100568.0;;;44.96;17.5
59654;BME280;66556;52.008;5.432;2023-07-29T02:59:13;100574.0;;;45.72;16.8
59654;BME280;66556;52.008;5.432;2023-07-29T03:02:26;100570.0;;;44.54;17.66
59654;BME280;66556;52.008;5.432;2023-07-29T03:04:02;100577.0;;;44.69;17.52
59654;BME280;66556;52.008;5.432;2023-07-29T03:05:38;100578.0;;;44.57;17.64
59654;BME280;66556;52.008;5.432;2023-07-29T03:07:14;100571.0;;;44.99;17.38
59654;BME280;66556;52.008;5.432;2023-07-29T03:10:26;100563.0;;;44.72;17.57
59654;BME280;66556;52.008;5.432;2023-07-29T03:12:03;100558.0;;;44.51;17.68
59654;BME280;66556;52.008;5.432;2023-07-29T03:13:39;100557.0;;;46.11;16.43
59654;BME280;66556;52.008;5.432;2023-07-29T03:16:51;100556.0;;;45.89;16.56
59654;BME280;66556;52.008;5.432;2023-07-29T03:18:27;100555.0;;;46.28;16.16
59654;BME280;66556;52.008;5.432;2023-07-29T03:20:04;100557.0;;;46.37;15.92
59654;BME280;66556;52.008;5.432;2023-07-29T03:23:16;100558.0;;;45.53;16.62
59654;BME280;66556;52.008;5.432;2023-07-29T03:24:52;100565.0;;;44.35;17.73
59654;BME280;66556;52.008;5.432;2023-07-29T03:26:29;100565.0;;;44.04;18.04
59654;BME280;66556;52.008;5.432;2023-07-29T03:29:41;100570.0;;;44.26;17.82
59654;BME280;66556;52.008;5.432;2023-07-29T03:31:17;100564.0;;;44.85;17.45
59654;BME280;66556;52.008;5.432;2023-07-29T03:32:53;100565.0;;;45.16;17.3
59654;BME280;66556;52.008;5.432;2023-07-29T03:34:29;100566.0;;;46.1;16.43
59654;BME280;66556;52.008;5.432;2023-07-29T03:37:42;100564.0;;;44.86;17.25
59654;BME280;66556;52.008;5.432;2023-07-29T03:39:18;100561.0;;;44.48;17.62
59654;BME280;66556;52.008;5.432;2023-07-29T03:40:54;100575.0;;;44.11;17.91
59654;BME280;66556;52.008;5.432;2023-07-29T03:44:06;100569.0;;;45.18;17.0
59654;BME280;66556;52.008;5.432;2023-07-29T03:45:42;100568.0;;;45.16;17.11
59654;BME280;66556;52.008;5.432;2023-07-29T03:47:18;100574.0;;;44.48;17.43
59654;BME280;66556;52.008;5.432;2023-07-29T03:50:33;100576.0;;;43.35;18.41
59654;BME280;66556;52.008;5.432;2023-07-29T03:52:10;100574.0;;;45.16;16.95
59654;BME280;66556;52.008;5.432;2023-07-29T03:53:46;100574.0;;;45.23;16.81
59654;BME280;66556;52.008;5.432;2023-07-29T03:55:22;100569.0;;;44.71;17.29
59654;BME280;66556;52.008;5.432;2023-07-29T04:00:12;100576.0;;;45.37;16.73
59654;BME280;66556;52.008;5.432;2023-07-29T04:01:49;100575.0;;;45.03;16.75
59654;BME280;66556;52.008;5.432;2023-07-29T04:05:01;100573.0;;;44.67;16.98
59654;BME280;66556;52.008;5.432;2023-07-29T04:06:37;100581.0;;;44.15;17.52
59654;BME280;66556;52.008;5.432;2023-07-29T04:08:13;100580.0;;;43.81;17.73
59654;BME280;66556;52.008;5.432;2023-07-29T04:11:25;100576.0;;;43.9;17.7
59654;BME280;66556;52.008;5.432;2023-07-29T04:13:01;100575.0;;;42.46;18.75
59654;BME280;66556;52.008;5.432;2023-07-29T04:14:37;100568.0;;;43.65;17.77
59654;BME280;66556;52.008;5.432;2023-07-29T04:16:14;100568.0;;;43.58;17.87
59654;BME280;66556;52.008;5.432;2023-07-29T04:19:26;100562.0;;;43.3;18.09
59654;BME280;66556;52.008;5.432;2023-07-29T04:21:02;100555.0;;;45.08;16.45
59654;BME280;66556;52.008;5.432;2023-07-29T04:22:38;100555.0;;;44.69;16.68
59654;BME280;66556;52.008;5.432;2023-07-29T04:25:50;100555.0;;;44.35;17.18
59654;BME280;66556;52.008;5.432;2023-07-29T04:27:26;100555.0;;;43.57;17.88
59654;BME280;66556;52.008;5.432;2023-07-29T04:29:02;100561.0;;;44.41;16.84
59654;BME280;66556;52.008;5.432;2023-07-29T04:32:15;100563.0;;;44.29;17.2
59654;BME280;66556;52.008;5.432;2023-07-29T04:33:51;100564.0;;;44.7;16.68
59654;BME280;66556;52.008;5.432;2023-07-29T04:35:27;100563.0;;;44.24;17.12
59654;BME280;66556;52.008;5.432;2023-07-29T04:38:39;100568.0;;;44.0;17.14
59654;BME280;66556;52.008;5.432;2023-07-29T04:40:16;100567.0;;;44.81;16.59
59654;BME280;66556;52.008;5.432;2023-07-29T04:41:52;100577.0;;;44.43;16.82
59654;BME280;66556;52.008;5.432;2023-07-29T04:43:30;100581.0;;;43.85;17.32
59654;BME280;66556;52.008;5.432;2023-07-29T04:46:43;100586.0;;;44.93;16.55
59654;BME280;66556;52.008;5.432;2023-07-29T04:48:19;100578.0;;;44.44;16.82
59654;BME280;66556;52.008;5.432;2023-07-29T04:49:55;100574.0;;;44.47;16.78
59654;BME280;66556;52.008;5.432;2023-07-29T04:53:07;100578.0;;;44.65;16.68
59654;BME280;66556;52.008;5.432;2023-07-29T04:54:44;100580.0;;;44.48;16.59
59654;BME280;66556;52.008;5.432;2023-07-29T04:56:20;100585.0;;;44.63;16.5
59654;BME280;66556;52.008;5.432;2023-07-29T04:59:32;100586.0;;;44.59;16.8
59654;BME280;66556;52.008;5.432;2023-07-29T05:01:08;100584.0;;;44.25;17.02
59654;BME280;66556;52.008;5.432;2023-07-29T05:02:44;100588.0;;;44.91;16.59
59654;BME280;66556;52.008;5.432;2023-07-29T05:04:20;100592.0;;;44.7;16.62
59654;BME280;66556;52.008;5.432;2023-07-29T05:07:35;100594.0;;;44.86;16.37
59654;BME280;66556;52.008;5.432;2023-07-29T05:09:13;100599.0;;;43.9;17.29
59654;BME280;66556;52.008;5.432;2023-07-29T05:10:50;100601.0;;;43.2;18.2
59654;BME280;66556;52.008;5.432;2023-07-29T05:14:03;100596.0;;;43.8;17.5
59654;BME280;66556;52.008;5.432;2023-07-29T05:15:39;100588.0;;;44.23;17.25
59654;BME280;66556;52.008;5.432;2023-07-29T05:17:15;100595.0;;;44.38;17.12
59654;BME280;66556;52.008;5.432;2023-07-29T05:20:28;100596.0;;;44.14;17.34
59654;BME280;66556;52.008;5.432;2023-07-29T05:22:04;100598.0;;;43.51;17.95
59654;BME280;66556;52.008;5.432;2023-07-29T05:23:40;100592.0;;;44.55;16.97
59654;BME280;66556;52.008;5.432;2023-07-29T05:25:16;100595.0;;;44.3;17.18
59654;BME280;66556;52.008;5.432;2023-07-29T05:28:28;100605.0;;;44.58;16.77
59654;BME280;66556;52.008;5.432;2023-07-29T05:30:06;100605.0;;;44.76;16.84
59654;BME280;66556;52.008;5.432;2023-07-29T05:31:42;100600.0;;;44.83;16.78
59654;BME280;66556;52.008;5.432;2023-07-29T05:34:55;100607.0;;;43.9;17.43
59654;BME280;66556;52.008;5.432;2023-07-29T05:36:31;100607.0;;;41.88;19.61
59654;BME280;66556;52.008;5.432;2023-07-29T05:38:07;100602.0;;;44.05;17.84
59654;BME280;66556;52.008;5.432;2023-07-29T05:41:19;100607.0;;;42.97;18.66
59654;BME280;66556;52.008;5.432;2023-07-29T05:42:55;100603.0;;;43.97;17.84
59654;BME280;66556;52.008;5.432;2023-07-29T05:44:31;100601.0;;;44.55;17.39
59654;BME280;66556;52.008;5.432;2023-07-29T05:47:44;100609.0;;;43.0;18.57
59654;BME280;66556;52.008;5.432;2023-07-29T05:49:20;100609.0;;;43.77;17.95
59654;BME280;66556;52.008;5.432;2023-07-29T05:50:56;100610.0;;;44.09;17.95
59654;BME280;66556;52.008;5.432;2023-07-29T05:52:32;100610.0;;;43.89;18.11
59654;BME280;66556;52.008;5.432;2023-07-29T05:55:45;100602.0;;;44.9;17.0
59654;BME280;66556;52.008;5.432;2023-07-29T05:57:21;100602.0;;;45.34;16.77
59654;BME280;66556;52.008;5.432;2023-07-29T05:58:57;100602.0;;;45.22;16.72
59654;BME280;66556;52.008;5.432;2023-07-29T06:02:10;100606.0;;;44.46;17.68
59654;BME280;66556;52.008;5.432;2023-07-29T06:03:46;100601.0;;;44.45;17.95
59654;BME280;66556;52.008;5.432;2023-07-29T06:05:22;100599.0;;;44.64;17.72
59654;BME280;66556;52.008;5.432;2023-07-29T06:08:34;100603.0;;;44.73;17.48
59654;BME280;66556;52.008;5.432;2023-07-29T06:10:12;100603.0;;;44.06;17.98
59654;BME280;66556;52.008;5.432;2023-07-29T06:11:50;100599.0;;;44.85;17.27
59654;BME280;66556;52.008;5.432;2023-07-29T06:13:26;100601.0;;;45.13;17.06
59654;BME280;66556;52.008;5.432;2023-07-29T06:16:38;100601.0;;;44.13;17.8
59654;BME280;66556;52.008;5.432;2023-07-29T06:18:14;100605.0;;;44.25;18.02
59654;BME280;66556;52.008;5.432;2023-07-29T06:19:50;100603.0;;;44.28;17.84
59654;BME280;66556;52.008;5.432;2023-07-29T06:23:03;100605.0;;;44.98;17.18
59654;BME280;66556;52.008;5.432;2023-07-29T06:24:40;100609.0;;;45.4;16.89
59654;BME280;66556;52.008;5.432;2023-07-29T06:26:16;100610.0;;;45.51;16.96
59654;BME280;66556;52.008;5.432;2023-07-29T06:29:28;100609.0;;;45.44;17.02
59654;BME280;66556;52.008;5.432;2023-07-29T06:31:04;100612.0;;;45.86;16.81
59654;BME280;66556;52.008;5.432;2023-07-29T06:32:40;100611.0;;;45.42;16.96
59654;BME280;66556;52.008;5.432;2023-07-29T06:34:17;100611.0;;;46.48;16.32
59654;BME280;66556;52.008;5.432;2023-07-29T06:37:30;100612.0;;;45.47;16.75
59654;BME280;66556;52.008;5.432;2023-07-29T06:39:06;100610.0;;;45.44;17.54
59654;BME280;66556;52.008;5.432;2023-07-29T06:40:42;100616.0;;;45.26;17.46
59654;BME280;66556;52.008;5.432;2023-07-29T06:43:54;100607.0;;;46.87;16.52
59654;BME280;66556;52.008;5.432;2023-07-29T06:45:30;100620.0;;;46.66;15.95
59654;BME280;66556;52.008;5.432;2023-07-29T06:47:06;100620.0;;;45.58;16.53
59654;BME280;66556;52.008;5.432;2023-07-29T06:50:19;100614.0;;;46.4;15.99
59654;BME280;66556;52.008;5.432;2023-07-29T06:51:55;100617.0;;;46.24;16.48
59654;BME280;66556;52.008;5.432;2023-07-29T06:53:31;100617.0;;;44.1;17.87
59654;BME280;66556;52.008;5.432;2023-07-29T06:56:43;100615.0;;;46.46;16.3
59654;BME280;66556;52.008;5.432;2023-07-29T06:58:19;100618.0;;;46.07;16.43
59654;BME280;66556;52.008;5.432;2023-07-29T06:59:57;100617.0;;;46.58;16.16
59654;BME280;66556;52.008;5.432;2023-07-29T07:01:34;100618.0;;;46.45;16.25
59654;BME280;66556;52.008;5.432;2023-07-29T07:04:46;100630.0;;;45.87;16.77
59654;BME280;66556;52.008;5.432;2023-07-29T07:06:22;100620.0;;;46.65;16.18
59654;BME280;66556;52.008;5.432;2023-07-29T07:07:58;100622.0;;;46.76;16.16
59654;BME280;66556;52.008;5.432;2023-07-29T07:11:12;100626.0;;;46.46;16.27
59654;BME280;66556;52.008;5.432;2023-07-29T07:12:48;100628.0;;;45.08;17.38
59654;BME280;66556;52.008;5.432;2023-07-29T07:14:24;100631.0;;;44.42;18.2
59654;BME280;66556;52.008;5.432;2023-07-29T07:17:36;100627.0;;;45.28;17.22
59654;BME280;66556;52.008;5.432;2023-07-29T07:19:12;100633.0;;;45.66;16.8
59654;BME280;66556;52.008;5.432;2023-07-29T07:20:49;100634.0;;;45.75;16.95
59654;BME280;66556;52.008;5.432;2023-07-29T07:22:25;100627.0;;;46.49;16.39
59654;BME280;66556;52.008;5.432;2023-07-29T07:27:14;100633.0;;;46.99;15.96
59654;BME280;66556;52.008;5.432;2023-07-29T07:28:50;100631.0;;;46.55;16.36
59654;BME280;66556;52.008;5.432;2023-07-29T07:32:03;100639.0;;;46.29;16.46
59654;BME280;66556;52.008;5.432;2023-07-29T07:33:39;100638.0;;;46.08;17.02
59654;BME280;66556;52.008;5.432;2023-07-29T07:35:15;100637.0;;;46.6;16.62
59654;BME280;66556;52.008;5.432;2023-07-29T07:38:28;100639.0;;;44.91;17.77
59654;BME280;66556;52.008;5.432;2023-07-29T07:40:05;100633.0;;;46.19;16.95
59654;BME280;66556;52.008;5.432;2023-07-29T07:41:41;100641.0;;;45.54;17.34
59654;BME280;66556;52.008;5.432;2023-07-29T07:43:18;100637.0;;;44.97;18.0
59654;BME280;66556;52.008;5.432;2023-07-29T07:46:30;100636.0;;;46.12;17.11
59654;BME280;66556;52.008;5.432;2023-07-29T07:48:07;100633.0;;;45.93;16.89
59654;BME280;66556;52.008;5.432;2023-07-29T07:49:43;100632.0;;;44.4;18.21
59654;BME280;66556;52.008;5.432;2023-07-29T07:52:55;100634.0;;;44.84;17.84
59654;BME280;66556;52.008;5.432;2023-07-29T07:54:31;100633.0;;;45.33;17.43
59654;BME280;66556;52.008;5.432;2023-07-29T07:56:07;100634.0;;;44.91;17.77
59654;BME280;66556;52.008;5.432;2023-07-29T07:59:19;100638.0;;;45.29;17.7
59654;BME280;66556;52.008;5.432;2023-07-29T08:01:01;100639.0;;;46.72;16.45
59654;BME280;66556;52.008;5.432;2023-07-29T08:02:37;100638.0;;;46.08;16.89
59654;BME280;66556;52.008;5.432;2023-07-29T08:05:49;100637.0;;;46.78;16.3
59654;BME280;66556;52.008;5.432;2023-07-29T08:07:25;100645.0;;;46.38;16.72
59654;BME280;66556;52.008;5.432;2023-07-29T08:09:01;100642.0;;;46.54;16.82
59654;BME280;66556;52.008;5.432;2023-07-29T08:10:37;100649.0;;;46.39;17.0
59654;BME280;66556;52.008;5.432;2023-07-29T08:13:49;100645.0;;;45.14;18.18
59654;BME280;66556;52.008;5.432;2023-07-29T08:15:25;100647.0;;;44.97;18.0
59654;BME280;66556;52.008;5.432;2023-07-29T08:17:02;100641.0;;;45.18;17.7
59654;BME280;66556;52.008;5.432;2023-07-29T08:20:14;100647.0;;;46.15;17.29
59654;BME280;66556;52.008;5.432;2023-07-29T08:21:50;100647.0;;;44.37;18.66
59654;BME280;66556;52.008;5.432;2023-07-29T08:23:27;100637.0;;;47.06;16.43
59654;BME280;66556;52.008;5.432;2023-07-29T08:26:41;100635.0;;;47.37;16.28
59654;BME280;66556;52.008;5.432;2023-07-29T08:28:16;100638.0;;;48.18;15.62
59654;BME280;66556;52.008;5.432;2023-07-29T08:29:53;100645.0;;;45.66;16.95
59654;BME280;66556;52.008;5.432;2023-07-29T08:31:30;100644.0;;;45.14;17.75
59654;BME280;66556;52.008;5.432;2023-07-29T08:34:42;100650.0;;;46.28;16.7
59654;BME280;66556;52.008;5.432;2023-07-29T08:36:18;100650.0;;;46.1;16.84
59654;BME280;66556;52.008;5.432;2023-07-29T08:37:54;100648.0;;;46.37;16.27
59654;BME280;66556;52.008;5.432;2023-07-29T08:41:11;100650.0;;;46.25;16.75
59654;BME280;66556;52.008;5.432;2023-07-29T08:42:52;100647.0;;;46.24;16.78
59654;BME280;66556;52.008;5.432;2023-07-29T08:44:35;100648.0;;;45.87;17.0
59654;BME280;66556;52.008;5.432;2023-07-29T08:46:16;100648.0;;;45.34;17.34
59654;BME280;66556;52.008;5.432;2023-07-29T08:49:33;100650.0;;;46.12;16.53
59654;BME280;66556;52.008;5.432;2023-07-29T08:51:11;100648.0;;;47.02;16.03
59654;BME280;66556;52.008;5.432;2023-07-29T08:52:49;100653.0;;;45.59;17.34
59654;BME280;66556;52.008;5.432;2023-07-29T08:56:01;100661.0;;;44.57;18.05
59654;BME280;66556;52.008;5.432;2023-07-29T08:57:38;100659.0;;;44.21;18.75
59654;BME280;66556;52.008;5.432;2023-07-29T08:59:14;100656.0;;;44.31;18.36
59654;BME280;66556;52.008;5.432;2023-07-29T09:00:52;100651.0;;;45.35;17.79
59654;BME280;66556;52.008;5.432;2023-07-29T09:04:05;100652.0;;;46.29;17.28
59654;BME280;66556;52.008;5.432;2023-07-29T09:05:41;100653.0;;;46.12;16.91
59654;BME280;66556;52.008;5.432;2023-07-29T09:07:17;100655.0;;;46.04;17.55
59654;BME280;66556;52.008;5.432;2023-07-29T09:10:30;100646.0;;;47.11;16.47
59654;BME280;66556;52.008;5.432;2023-07-29T09:12:11;100652.0;;;46.57;16.68
59654;BME280;66556;52.008;5.432;2023-07-29T09:13:47;100649.0;;;47.63;15.58
59654;BME280;66556;52.008;5.432;2023-07-29T09:15:27;100649.0;;;47.95;15.84
59654;BME280;66556;52.008;5.432;2023-07-29T09:18:43;100647.0;;;47.69;15.5
59654;BME280;66556;52.008;5.432;2023-07-29T09:20:24;100649.0;;;48.81;15.21
59654;BME280;66556;52.008;5.432;2023-07-29T09:22:00;100657.0;;;48.57;14.99
59654;BME280;66556;52.008;5.432;2023-07-29T09:25:22;100647.0;;;47.59;15.38
59654;BME280;66556;52.008;5.432;2023-07-29T09:26:59;100649.0;;;47.92;15.47
59654;BME280;66556;52.008;5.432;2023-07-29T09:28:37;100644.0;;;48.74;15.09
59654;BME280;66556;52.008;5.432;2023-07-29T09:30:15;100643.0;;;49.06;15.0
59654;BME280;66556;52.008;5.432;2023-07-29T09:33:28;100641.0;;;49.27;14.61
59654;BME280;66556;52.008;5.432;2023-07-29T09:35:09;100643.0;;;48.71;14.42
59654;BME280;66556;52.008;5.432;2023-07-29T09:36:46;100647.0;;;48.7;14.53
59654;BME280;66556;52.008;5.432;2023-07-29T09:40:04;100648.0;;;48.92;14.7
59654;BME280;66556;52.008;5.432;2023-07-29T09:41:40;100642.0;;;48.8;14.67
59654;BME280;66556;52.008;5.432;2023-07-29T09:43:17;100640.0;;;49.04;14.28
59654;BME280;66556;52.008;5.432;2023-07-29T09:44:53;100636.0;;;49.66;14.16
59654;BME280;66556;52.008;5.432;2023-07-29T09:48:09;100641.0;;;50.0;13.58
59654;BME280;66556;52.008;5.432;2023-07-29T09:49:45;100636.0;;;47.88;14.56
59654;BME280;66556;52.008;5.432;2023-07-29T09:51:21;100641.0;;;48.01;14.67
59654;BME280;66556;52.008;5.432;2023-07-29T09:54:36;100643.0;;;49.79;13.73
59654;BME280;66556;52.008;5.432;2023-07-29T09:56:12;100639.0;;;48.38;14.52
59654;BME280;66556;52.008;5.432;2023-07-29T09:57:53;100645.0;;;48.8;14.42
59654;BME280;66556;52.008;5.432;2023-07-29T09:59:33;100649.0;;;48.79;14.3
59654;BME280;66556;52.008;5.432;2023-07-29T10:02:47;100637.0;;;48.05;15.35
59654;BME280;66556;52.008;5.432;2023-07-29T10:04:25;100638.0;;;49.98;14.18
59654;BME280;66556;52.008;5.432;2023-07-29T10:06:03;100650.0;;;49.35;14.08
59654;BME280;66556;52.008;5.432;2023-07-29T10:09:16;100644.0;;;49.12;14.37
59654;BME280;66556;52.008;5.432;2023-07-29T10:10:54;100648.0;;;49.5;13.99
59654;BME280;66556;52.008;5.432;2023-07-29T10:12:32;100644.0;;;49.48;13.85
59654;BME280;66556;52.008;5.432;2023-07-29T10:14:08;100644.0;;;48.84;15.08
59654;BME280;66556;52.008;5.432;2023-07-29T10:17:23;100643.0;;;49.52;14.29
59654;BME280;66556;52.008;5.432;2023-07-29T10:19:02;100649.0;;;50.71;13.59
59654;BME280;66556;52.008;5.432;2023-07-29T10:20:40;100651.0;;;49.61;13.9
59654;BME280;66556;52.008;5.432;2023-07-29T10:22:20;100645.0;;;50.07;13.74
59654;BME280;66556;52.008;5.432;2023-07-29T10:25:46;100650.0;;;49.58;14.13
59654;BME280;66556;52.008;5.432;2023-07-29T10:27:24;100648.0;;;49.7;13.96
59654;BME280;66556;52.008;5.432;2023-07-29T10:29:04;100649.0;;;48.58;14.33
59654;BME280;66556;52.008;5.432;2023-07-29T10:30:43;100645.0;;;49.58;13.65
59654;BME280;66556;52.008;5.432;2023-07-29T10:34:01;100651.0;;;49.26;13.81
59654;BME280;66556;52.008;5.432;2023-07-29T10:35:38;100649.0;;;48.19;14.75
59654;BME280;66556;52.008;5.432;2023-07-29T10:37:14;100644.0;;;48.86;14.4
59654;BME280;66556;52.008;5.432;2023-07-29T10:40:43;100646.0;;;49.09;14.39
59654;BME280;66556;52.008;5.432;2023-07-29T10:42:21;100646.0;;;48.92;14.52
59654;BME280;66556;52.008;5.432;2023-07-29T10:43:57;100648.0;;;47.98;15.45
59654;BME280;66556;52.008;5.432;2023-07-29T10:45:37;100650.0;;;49.01;14.06
59654;BME280;66556;52.008;5.432;2023-07-29T10:48:54;100651.0;;;48.53;14.37
59654;BME280;66556;52.008;5.432;2023-07-29T10:50:31;100648.0;;;49.11;14.15
59654;BME280;66556;52.008;5.432;2023-07-29T10:52:07;100652.0;;;49.32;13.8
59654;BME280;66556;52.008;5.432;2023-07-29T10:53:43;100657.0;;;48.93;14.25
59654;BME280;66556;52.008;5.432;2023-07-29T10:57:06;100653.0;;;49.03;14.01
59654;BME280;66556;52.008;5.432;2023-07-29T10:58:43;100659.0;;;48.95;14.16
59654;BME280;66556;52.008;5.432;2023-07-29T11:00:19;100652.0;;;47.85;14.67
59654;BME280;66556;52.008;5.432;2023-07-29T11:03:34;100653.0;;;49.07;14.01
59654;BME280;66556;52.008;5.432;2023-07-29T11:05:16;100653.0;;;48.48;14.49
59654;BME280;66556;52.008;5.432;2023-07-29T11:07:18;100659.0;;;48.97;14.29
59654;BME280;66556;52.008;5.432;2023-07-29T11:09:38;100657.0;;;49.61;14.04
59654;BME280;66556;52.008;5.432;2023-07-29T11:11:15;100655.0;;;48.71;14.67